sensor_id;sensor_type;location;lat;lon;timestamp;P1;P2;P0
69123;PMS5003;56232;53.384;-2.732;2022-07-29T00:02:10;10;10;
69123;PMS5003;56232;53.384;-2.732;2022-07-29T00:04:36;11;10;
69123;PMS5003;56232;53.384;-2.732;2022-07-29T00:07:02;10;10;
69123;PMS5003;56232;53.384;-2.732;2022-07-29T00:09:27;9;9;
69123;PMS5003;56232;53.384;-2.732;2022-07-29T00:11:52;9;9;
69123;PMS5003;56232;53.384;-2.732;2022-07-29T00:14:18;9;9;
69123;PMS5003;56232;53.384;-2.732;2022-07-29T00:16:44;9;8;
69123;PMS5003;56232;53.384;-2.732;2022-07-29T00:19:09;10;10;
69123;PMS5003;56232;53.384;-2.732;2022-07-29T00:21:34;11;11;
69123;PMS5003;56232;53.384;-2.732;2022-07-29T00:24:00;7;7;
69123;PMS5003;56232;53.384;-2.732;2022-07-29T00:26:25;11;10;
69123;PMS5003;56232;53.384;-2.732;2022-07-29T00:28:51;8;8;
69123;PMS5003;56232;53.384;-2.732;2022-07-29T00:31:16;11;10;
69123;PMS5003;56232;53.384;-2.732;2022-07-29T00:33:43;10;9;
69123;PMS5003;56232;53.384;-2.732;2022-07-29T00:36:08;12;12;
69123;PMS5003;56232;53.384;-2.732;2022-07-29T00:38:33;12;11;
69123;PMS5003;56232;53.384;-2.732;2022-07-29T00:40:59;10;10;
69123;PMS5003;56232;53.384;-2.732;2022-07-29T00:43:25;11;11;
69123;PMS5003;56232;53.384;-2.732;2022-07-29T00:45:50;12;12;
69123;PMS5003;56232;53.384;-2.732;2022-07-29T00:48:15;12;12;
69123;PMS5003;56232;53.384;-2.732;2022-07-29T00:50:41;25;25;
69123;PMS5003;56232;53.384;-2.732;2022-07-29T00:53:07;14;14;
69123;PMS5003;56232;53.384;-2.732;2022-07-29T00:55:32;12;12;
69123;PMS5003;56232;53.384;-2.732;2022-07-29T00:57:58;12;12;
69123;PMS5003;56232;53.384;-2.732;2022-07-29T01:00:24;12;12;
69123;PMS5003;56232;53.384;-2.732;2022-07-29T01:02:49;12;12;
69123;PMS5003;56232;53.384;-2.732;2022-07-29T01:05:15;14;14;
69123;PMS5003;56232;53.384;-2.732;2022-07-29T01:07:40;13;13;
69123;PMS5003;56232;53.384;-2.732;2022-07-29T01:10:06;12;12;
69123;PMS5003;56232;53.384;-2.732;2022-07-29T01:12:31;13;13;
69123;PMS5003;56232;53.384;-2.732;2022-07-29T01:14:56;11;11;
69123;PMS5003;56232;53.384;-2.732;2022-07-29T01:17:23;12;11;
69123;PMS5003;56232;53.384;-2.732;2022-07-29T01:19:49;12;12;
69123;PMS5003;56232;53.384;-2.732;2022-07-29T01:22:17;16;16;
69123;PMS5003;56232;53.384;-2.732;2022-07-29T01:24:45;14;13;
69123;PMS5003;56232;53.384;-2.732;2022-07-29T01:27:06;13;12;
69123;PMS5003;56232;53.384;-2.732;2022-07-29T01:29:30;11;11;
69123;PMS5003;56232;53.384;-2.732;2022-07-29T01:31:56;13;12;
69123;PMS5003;56232;53.384;-2.732;2022-07-29T01:34:21;12;11;
69123;PMS5003;56232;53.384;-2.732;2022-07-29T01:36:48;12;12;
69123;PMS5003;56232;53.384;-2.732;2022-07-29T01:39:14;10;10;
69123;PMS5003;56232;53.384;-2.732;2022-07-29T01:41:40;14;13;
69123;PMS5003;56232;53.384;-2.732;2022-07-29T01:44:07;14;13;
69123;PMS5003;56232;53.384;-2.732;2022-07-29T01:46:30;14;12;
69123;PMS5003;56232;53.384;-2.732;2022-07-29T01:48:56;11;11;
69123;PMS5003;56232;53.384;-2.732;2022-07-29T01:51:21;11;11;
69123;PMS5003;56232;53.384;-2.732;2022-07-29T01:53:47;14;13;
69123;PMS5003;56232;53.384;-2.732;2022-07-29T01:56:11;13;12;
69123;PMS5003;56232;53.384;-2.732;2022-07-29T01:58:37;14;13;
69123;PMS5003;56232;53.384;-2.732;2022-07-29T02:01:02;10;8;
69123;PMS5003;56232;53.384;-2.732;2022-07-29T02:03:28;12;11;
69123;PMS5003;56232;53.384;-2.732;2022-07-29T02:05:53;13;12;
69123;PMS5003;56232;53.384;-2.732;2022-07-29T02:08:19;11;11;
69123;PMS5003;56232;53.384;-2.732;2022-07-29T02:10:44;13;12;
69123;PMS5003;56232;53.384;-2.732;2022-07-29T02:13:10;11;11;
69123;PMS5003;56232;53.384;-2.732;2022-07-29T02:15:35;10;10;
69123;PMS5003;56232;53.384;-2.732;2022-07-29T02:18:01;10;10;
69123;PMS5003;56232;53.384;-2.732;2022-07-29T02:20:26;11;10;
69123;PMS5003;56232;53.384;-2.732;2022-07-29T02:22:52;11;11;
69123;PMS5003;56232;53.384;-2.732;2022-07-29T02:25:18;13;12;
69123;PMS5003;56232;53.384;-2.732;2022-07-29T02:27:44;10;9;
69123;PMS5003;56232;53.384;-2.732;2022-07-29T02:30:09;10;10;
69123;PMS5003;56232;53.384;-2.732;2022-07-29T02:32:35;10;10;
69123;PMS5003;56232;53.384;-2.732;2022-07-29T02:35:00;13;12;
69123;PMS5003;56232;53.384;-2.732;2022-07-29T02:37:25;12;12;
69123;PMS5003;56232;53.384;-2.732;2022-07-29T02:39:51;11;11;
69123;PMS5003;56232;53.384;-2.732;2022-07-29T02:42:17;10;9;
69123;PMS5003;56232;53.384;-2.732;2022-07-29T02:44:43;12;12;
69123;PMS5003;56232;53.384;-2.732;2022-07-29T02:47:10;11;11;
69123;PMS5003;56232;53.384;-2.732;2022-07-29T02:49:35;12;11;
69123;PMS5003;56232;53.384;-2.732;2022-07-29T02:52:00;14;14;
69123;PMS5003;56232;53.384;-2.732;2022-07-29T02:54:27;12;10;
69123;PMS5003;56232;53.384;-2.732;2022-07-29T02:56:50;12;11;
69123;PMS5003;56232;53.384;-2.732;2022-07-29T02:59:16;11;11;
69123;PMS5003;56232;53.384;-2.732;2022-07-29T03:01:42;14;12;
69123;PMS5003;56232;53.384;-2.732;2022-07-29T03:04:07;12;11;
69123;PMS5003;56232;53.384;-2.732;2022-07-29T03:06:33;11;10;
69123;PMS5003;56232;53.384;-2.732;2022-07-29T03:08:58;9;9;
69123;PMS5003;56232;53.384;-2.732;2022-07-29T03:11:24;10;10;
69123;PMS5003;56232;53.384;-2.732;2022-07-29T03:13:49;8;8;
69123;PMS5003;56232;53.384;-2.732;2022-07-29T03:16:15;9;8;
69123;PMS5003;56232;53.384;-2.732;2022-07-29T03:18:41;11;10;
69123;PMS5003;56232;53.384;-2.732;2022-07-29T03:21:06;12;12;
69123;PMS5003;56232;53.384;-2.732;2022-07-29T03:23:31;11;10;
69123;PMS5003;56232;53.384;-2.732;2022-07-29T03:25:57;8;8;
69123;PMS5003;56232;53.384;-2.732;2022-07-29T03:28:23;9;9;
69123;PMS5003;56232;53.384;-2.732;2022-07-29T03:30:48;10;10;
69123;PMS5003;56232;53.384;-2.732;2022-07-29T03:33:14;9;9;
69123;PMS5003;56232;53.384;-2.732;2022-07-29T03:35:39;11;10;
69123;PMS5003;56232;53.384;-2.732;2022-07-29T03:38:05;9;8;
69123;PMS5003;56232;53.384;-2.732;2022-07-29T03:40:31;8;7;
69123;PMS5003;56232;53.384;-2.732;2022-07-29T03:42:56;7;7;
69123;PMS5003;56232;53.384;-2.732;2022-07-29T03:45:22;9;9;
69123;PMS5003;56232;53.384;-2.732;2022-07-29T03:47:48;7;7;
69123;PMS5003;56232;53.384;-2.732;2022-07-29T03:50:13;6;5;
69123;PMS5003;56232;53.384;-2.732;2022-07-29T03:52:38;7;6;
69123;PMS5003;56232;53.384;-2.732;2022-07-29T03:55:04;8;7;
69123;PMS5003;56232;53.384;-2.732;2022-07-29T03:57:29;6;5;
69123;PMS5003;56232;53.384;-2.732;2022-07-29T03:59:55;6;6;
69123;PMS5003;56232;53.384;-2.732;2022-07-29T04:02:20;6;6;
69123;PMS5003;56232;53.384;-2.732;2022-07-29T04:04:46;7;7;
69123;PMS5003;56232;53.384;-2.732;2022-07-29T04:07:12;3;3;
69123;PMS5003;56232;53.384;-2.732;2022-07-29T04:09:37;5;5;
69123;PMS5003;56232;53.384;-2.732;2022-07-29T04:12:03;6;6;
69123;PMS5003;56232;53.384;-2.732;2022-07-29T04:14:30;6;6;
69123;PMS5003;56232;53.384;-2.732;2022-07-29T04:16:54;6;6;
69123;PMS5003;56232;53.384;-2.732;2022-07-29T04:19:20;7;5;
69123;PMS5003;56232;53.384;-2.732;2022-07-29T04:21:45;6;6;
69123;PMS5003;56232;53.384;-2.732;2022-07-29T04:24:11;5;5;
69123;PMS5003;56232;53.384;-2.732;2022-07-29T04:26:37;4;4;
69123;PMS5003;56232;53.384;-2.732;2022-07-29T04:29:02;4;4;
69123;PMS5003;56232;53.384;-2.732;2022-07-29T04:31:28;5;5;
69123;PMS5003;56232;53.384;-2.732;2022-07-29T04:33:53;9;9;
69123;PMS5003;56232;53.384;-2.732;2022-07-29T04:36:19;8;6;
69123;PMS5003;56232;53.384;-2.732;2022-07-29T04:38:44;5;5;
69123;PMS5003;56232;53.384;-2.732;2022-07-29T04:41:10;5;5;
69123;PMS5003;56232;53.384;-2.732;2022-07-29T04:43:35;3;3;
69123;PMS5003;56232;53.384;-2.732;2022-07-29T04:46:01;5;4;
69123;PMS5003;56232;53.384;-2.732;2022-07-29T04:48:27;6;4;
69123;PMS5003;56232;53.384;-2.732;2022-07-29T04:50:52;3;3;
69123;PMS5003;56232;53.384;-2.732;2022-07-29T04:53:18;5;5;
69123;PMS5003;56232;53.384;-2.732;2022-07-29T04:55:44;4;4;
69123;PMS5003;56232;53.384;-2.732;2022-07-29T04:58:09;3;3;
69123;PMS5003;56232;53.384;-2.732;2022-07-29T05:00:34;4;4;
69123;PMS5003;56232;53.384;-2.732;2022-07-29T05:03:00;3;3;
69123;PMS5003;56232;53.384;-2.732;2022-07-29T05:05:26;5;5;
69123;PMS5003;56232;53.384;-2.732;2022-07-29T05:07:51;3;3;
69123;PMS5003;56232;53.384;-2.732;2022-07-29T05:10:17;5;5;
69123;PMS5003;56232;53.384;-2.732;2022-07-29T05:12:43;6;5;
69123;PMS5003;56232;53.384;-2.732;2022-07-29T05:15:08;5;5;
69123;PMS5003;56232;53.384;-2.732;2022-07-29T05:17:34;3;3;
69123;PMS5003;56232;53.384;-2.732;2022-07-29T05:19:59;4;4;
69123;PMS5003;56232;53.384;-2.732;2022-07-29T05:22:25;4;4;
69123;PMS5003;56232;53.384;-2.732;2022-07-29T05:24:50;4;4;
69123;PMS5003;56232;53.384;-2.732;2022-07-29T05:27:16;4;4;
69123;PMS5003;56232;53.384;-2.732;2022-07-29T05:29:42;4;4;
69123;PMS5003;56232;53.384;-2.732;2022-07-29T05:32:07;4;4;
69123;PMS5003;56232;53.384;-2.732;2022-07-29T05:34:33;4;4;
69123;PMS5003;56232;53.384;-2.732;2022-07-29T05:36:58;7;6;
69123;PMS5003;56232;53.384;-2.732;2022-07-29T05:39:24;4;4;
69123;PMS5003;56232;53.384;-2.732;2022-07-29T05:41:50;5;5;
69123;PMS5003;56232;53.384;-2.732;2022-07-29T05:44:15;6;6;
69123;PMS5003;56232;53.384;-2.732;2022-07-29T05:46:41;5;5;
69123;PMS5003;56232;53.384;-2.732;2022-07-29T05:49:07;7;7;
69123;PMS5003;56232;53.384;-2.732;2022-07-29T05:51:32;6;6;
69123;PMS5003;56232;53.384;-2.732;2022-07-29T05:53:58;6;4;
69123;PMS5003;56232;53.384;-2.732;2022-07-29T05:56:23;7;6;
69123;PMS5003;56232;53.384;-2.732;2022-07-29T05:58:49;6;6;
69123;PMS5003;56232;53.384;-2.732;2022-07-29T06:01:15;5;5;
69123;PMS5003;56232;53.384;-2.732;2022-07-29T06:03:40;5;5;
69123;PMS5003;56232;53.384;-2.732;2022-07-29T06:06:06;6;6;
69123;PMS5003;56232;53.384;-2.732;2022-07-29T06:08:32;6;6;
69123;PMS5003;56232;53.384;-2.732;2022-07-29T06:10:57;6;6;
69123;PMS5003;56232;53.384;-2.732;2022-07-29T06:13:23;6;6;
69123;PMS5003;56232;53.384;-2.732;2022-07-29T06:15:48;4;3;
69123;PMS5003;56232;53.384;-2.732;2022-07-29T06:18:14;7;6;
69123;PMS5003;56232;53.384;-2.732;2022-07-29T06:20:40;7;6;
69123;PMS5003;56232;53.384;-2.732;2022-07-29T06:23:05;5;5;
69123;PMS5003;56232;53.384;-2.732;2022-07-29T06:25:31;6;5;
69123;PMS5003;56232;53.384;-2.732;2022-07-29T06:27:57;6;5;
69123;PMS5003;56232;53.384;-2.732;2022-07-29T06:30:22;6;6;
69123;PMS5003;56232;53.384;-2.732;2022-07-29T06:32:48;7;6;
69123;PMS5003;56232;53.384;-2.732;2022-07-29T06:35:13;9;8;
69123;PMS5003;56232;53.384;-2.732;2022-07-29T06:37:39;7;5;
69123;PMS5003;56232;53.384;-2.732;2022-07-29T06:40:05;7;6;
69123;PMS5003;56232;53.384;-2.732;2022-07-29T06:42:30;6;6;
69123;PMS5003;56232;53.384;-2.732;2022-07-29T06:44:56;5;5;
69123;PMS5003;56232;53.384;-2.732;2022-07-29T06:47:22;6;6;
69123;PMS5003;56232;53.384;-2.732;2022-07-29T06:49:47;8;8;
69123;PMS5003;56232;53.384;-2.732;2022-07-29T06:52:13;7;6;
69123;PMS5003;56232;53.384;-2.732;2022-07-29T06:54:38;6;5;
69123;PMS5003;56232;53.384;-2.732;2022-07-29T06:57:04;7;6;
69123;PMS5003;56232;53.384;-2.732;2022-07-29T06:59:29;6;5;
69123;PMS5003;56232;53.384;-2.732;2022-07-29T07:01:55;6;6;
69123;PMS5003;56232;53.384;-2.732;2022-07-29T07:04:21;7;6;
69123;PMS5003;56232;53.384;-2.732;2022-07-29T07:06:46;7;6;
69123;PMS5003;56232;53.384;-2.732;2022-07-29T07:09:12;5;5;
69123;PMS5003;56232;53.384;-2.732;2022-07-29T07:11:37;4;4;
69123;PMS5003;56232;53.384;-2.732;2022-07-29T07:14:03;8;8;
69123;PMS5003;56232;53.384;-2.732;2022-07-29T07:16:29;7;7;
69123;PMS5003;56232;53.384;-2.732;2022-07-29T07:18:54;4;4;
69123;PMS5003;56232;53.384;-2.732;2022-07-29T07:21:20;6;6;
69123;PMS5003;56232;53.384;-2.732;2022-07-29T07:23:45;8;7;
69123;PMS5003;56232;53.384;-2.732;2022-07-29T07:26:11;5;5;
69123;PMS5003;56232;53.384;-2.732;2022-07-29T07:28:36;7;6;
69123;PMS5003;56232;53.384;-2.732;2022-07-29T07:31:02;7;6;
69123;PMS5003;56232;53.384;-2.732;2022-07-29T07:33:27;6;6;
69123;PMS5003;56232;53.384;-2.732;2022-07-29T07:35:53;8;8;
69123;PMS5003;56232;53.384;-2.732;2022-07-29T07:38:19;5;5;
69123;PMS5003;56232;53.384;-2.732;2022-07-29T07:40:44;5;5;
69123;PMS5003;56232;53.384;-2.732;2022-07-29T07:43:09;5;5;
69123;PMS5003;56232;53.384;-2.732;2022-07-29T07:45:35;6;6;
69123;PMS5003;56232;53.384;-2.732;2022-07-29T07:48:00;5;5;
69123;PMS5003;56232;53.384;-2.732;2022-07-29T07:50:26;6;6;
69123;PMS5003;56232;53.384;-2.732;2022-07-29T07:52:52;5;5;
69123;PMS5003;56232;53.384;-2.732;2022-07-29T07:55:18;7;7;
69123;PMS5003;56232;53.384;-2.732;2022-07-29T07:57:43;5;5;
69123;PMS5003;56232;53.384;-2.732;2022-07-29T08:00:08;5;5;
69123;PMS5003;56232;53.384;-2.732;2022-07-29T08:02:34;5;5;
69123;PMS5003;56232;53.384;-2.732;2022-07-29T08:04:59;5;4;
69123;PMS5003;56232;53.384;-2.732;2022-07-29T08:07:25;6;5;
69123;PMS5003;56232;53.384;-2.732;2022-07-29T08:09:50;7;6;
69123;PMS5003;56232;53.384;-2.732;2022-07-29T08:12:16;6;6;
69123;PMS5003;56232;53.384;-2.732;2022-07-29T08:14:42;7;7;
69123;PMS5003;56232;53.384;-2.732;2022-07-29T08:17:07;5;5;
69123;PMS5003;56232;53.384;-2.732;2022-07-29T08:19:33;6;6;
69123;PMS5003;56232;53.384;-2.732;2022-07-29T08:21:58;6;6;
69123;PMS5003;56232;53.384;-2.732;2022-07-29T08:24:24;6;5;
69123;PMS5003;56232;53.384;-2.732;2022-07-29T08:26:50;6;6;
69123;PMS5003;56232;53.384;-2.732;2022-07-29T08:29:15;5;4;
69123;PMS5003;56232;53.384;-2.732;2022-07-29T08:31:41;6;6;
69123;PMS5003;56232;53.384;-2.732;2022-07-29T08:34:06;7;6;
69123;PMS5003;56232;53.384;-2.732;2022-07-29T08:36:32;6;6;
69123;PMS5003;56232;53.384;-2.732;2022-07-29T08:38:57;7;6;
69123;PMS5003;56232;53.384;-2.732;2022-07-29T08:41:23;7;7;
69123;PMS5003;56232;53.384;-2.732;2022-07-29T08:43:48;6;5;
69123;PMS5003;56232;53.384;-2.732;2022-07-29T08:46:14;5;5;
69123;PMS5003;56232;53.384;-2.732;2022-07-29T08:48:39;6;6;
69123;PMS5003;56232;53.384;-2.732;2022-07-29T08:51:05;7;6;
69123;PMS5003;56232;53.384;-2.732;2022-07-29T08:53:30;6;6;
69123;PMS5003;56232;53.384;-2.732;2022-07-29T08:55:56;7;6;
69123;PMS5003;56232;53.384;-2.732;2022-07-29T08:58:21;5;5;
69123;PMS5003;56232;53.384;-2.732;2022-07-29T09:00:48;5;5;
69123;PMS5003;56232;53.384;-2.732;2022-07-29T09:03:14;6;6;
69123;PMS5003;56232;53.384;-2.732;2022-07-29T09:05:38;5;5;
69123;PMS5003;56232;53.384;-2.732;2022-07-29T09:08:03;6;6;
69123;PMS5003;56232;53.384;-2.732;2022-07-29T09:10:29;6;6;
69123;PMS5003;56232;53.384;-2.732;2022-07-29T09:12:55;6;6;
69123;PMS5003;56232;53.384;-2.732;2022-07-29T09:15:20;7;7;
69123;PMS5003;56232;53.384;-2.732;2022-07-29T09:17:46;6;6;
69123;PMS5003;56232;53.384;-2.732;2022-07-29T09:20:12;7;7;
69123;PMS5003;56232;53.384;-2.732;2022-07-29T09:22:36;5;5;
69123;PMS5003;56232;53.384;-2.732;2022-07-29T09:25:02;6;6;
69123;PMS5003;56232;53.384;-2.732;2022-07-29T09:27:42;6;5;
69123;PMS5003;56232;53.384;-2.732;2022-07-29T09:29:57;9;9;
69123;PMS5003;56232;53.384;-2.732;2022-07-29T09:32:19;8;8;
69123;PMS5003;56232;53.384;-2.732;2022-07-29T09:34:44;7;7;
69123;PMS5003;56232;53.384;-2.732;2022-07-29T09:37:10;5;5;
69123;PMS5003;56232;53.384;-2.732;2022-07-29T09:39:36;7;7;
69123;PMS5003;56232;53.384;-2.732;2022-07-29T09:42:01;8;8;
69123;PMS5003;56232;53.384;-2.732;2022-07-29T09:44:26;11;10;
69123;PMS5003;56232;53.384;-2.732;2022-07-29T09:46:53;6;6;
69123;PMS5003;56232;53.384;-2.732;2022-07-29T09:49:17;9;8;
69123;PMS5003;56232;53.384;-2.732;2022-07-29T09:51:43;8;8;
69123;PMS5003;56232;53.384;-2.732;2022-07-29T09:56:38;8;7;
69123;PMS5003;56232;53.384;-2.732;2022-07-29T10:01:27;8;8;
69123;PMS5003;56232;53.384;-2.732;2022-07-29T10:03:50;6;6;
69123;PMS5003;56232;53.384;-2.732;2022-07-29T10:06:15;9;8;
69123;PMS5003;56232;53.384;-2.732;2022-07-29T10:08:41;8;8;
69123;PMS5003;56232;53.384;-2.732;2022-07-29T10:11:11;11;8;
69123;PMS5003;56232;53.384;-2.732;2022-07-29T10:13:32;7;6;
69123;PMS5003;56232;53.384;-2.732;2022-07-29T10:15:58;7;7;
69123;PMS5003;56232;53.384;-2.732;2022-07-29T10:18:23;5;5;
69123;PMS5003;56232;53.384;-2.732;2022-07-29T10:20:49;9;9;
69123;PMS5003;56232;53.384;-2.732;2022-07-29T10:23:14;8;8;
69123;PMS5003;56232;53.384;-2.732;2022-07-29T10:25:40;8;7;
69123;PMS5003;56232;53.384;-2.732;2022-07-29T10:28:06;7;7;
69123;PMS5003;56232;53.384;-2.732;2022-07-29T10:30:31;9;9;
69123;PMS5003;56232;53.384;-2.732;2022-07-29T10:33:01;9;8;
69123;PMS5003;56232;53.384;-2.732;2022-07-29T10:35:26;7;7;
69123;PMS5003;56232;53.384;-2.732;2022-07-29T10:37:52;11;11;
69123;PMS5003;56232;53.384;-2.732;2022-07-29T10:40:17;9;9;
69123;PMS5003;56232;53.384;-2.732;2022-07-29T10:42:39;8;8;
69123;PMS5003;56232;53.384;-2.732;2022-07-29T10:45:04;7;7;
69123;PMS5003;56232;53.384;-2.732;2022-07-29T10:47:29;9;9;
69123;PMS5003;56232;53.384;-2.732;2022-07-29T10:49:56;7;7;
69123;PMS5003;56232;53.384;-2.732;2022-07-29T10:52:20;9;9;
69123;PMS5003;56232;53.384;-2.732;2022-07-29T10:54:48;11;10;
69123;PMS5003;56232;53.384;-2.732;2022-07-29T10:57:13;9;9;
69123;PMS5003;56232;53.384;-2.732;2022-07-29T10:59:37;6;6;
69123;PMS5003;56232;53.384;-2.732;2022-07-29T11:02:03;8;8;
69123;PMS5003;56232;53.384;-2.732;2022-07-29T11:09:19;8;8;
69123;PMS5003;56232;53.384;-2.732;2022-07-29T11:11:44;9;9;
69123;PMS5003;56232;53.384;-2.732;2022-07-29T11:14:10;10;9;
69123;PMS5003;56232;53.384;-2.732;2022-07-29T11:23:52;8;8;
69123;PMS5003;56232;53.384;-2.732;2022-07-29T11:26:18;9;9;
69123;PMS5003;56232;53.384;-2.732;2022-07-29T11:31:08;9;9;
69123;PMS5003;56232;53.384;-2.732;2022-07-29T11:33:34;9;9;
69123;PMS5003;56232;53.384;-2.732;2022-07-29T11:38:25;11;11;
69123;PMS5003;56232;53.384;-2.732;2022-07-29T11:45:45;13;12;
69123;PMS5003;56232;53.384;-2.732;2022-07-29T11:48:07;12;12;
69123;PMS5003;56232;53.384;-2.732;2022-07-29T11:50:33;13;13;
69123;PMS5003;56232;53.384;-2.732;2022-07-29T11:52:59;15;14;
69123;PMS5003;56232;53.384;-2.732;2022-07-29T11:55:23;10;10;
69123;PMS5003;56232;53.384;-2.732;2022-07-29T11:57:49;13;12;
69123;PMS5003;56232;53.384;-2.732;2022-07-29T12:02:40;14;14;
69123;PMS5003;56232;53.384;-2.732;2022-07-29T12:05:05;13;13;
69123;PMS5003;56232;53.384;-2.732;2022-07-29T12:07:31;12;11;
69123;PMS5003;56232;53.384;-2.732;2022-07-29T12:09:56;11;11;
69123;PMS5003;56232;53.384;-2.732;2022-07-29T12:12:21;14;14;
69123;PMS5003;56232;53.384;-2.732;2022-07-29T12:14:47;13;13;
69123;PMS5003;56232;53.384;-2.732;2022-07-29T12:19:42;13;12;
69123;PMS5003;56232;53.384;-2.732;2022-07-29T12:22:03;13;13;
69123;PMS5003;56232;53.384;-2.732;2022-07-29T12:26:54;14;13;
69123;PMS5003;56232;53.384;-2.732;2022-07-29T12:29:19;14;14;
69123;PMS5003;56232;53.384;-2.732;2022-07-29T12:31:45;14;13;
69123;PMS5003;56232;53.384;-2.732;2022-07-29T12:34:10;12;12;
69123;PMS5003;56232;53.384;-2.732;2022-07-29T12:36:36;12;11;
69123;PMS5003;56232;53.384;-2.732;2022-07-29T12:39:02;13;12;
69123;PMS5003;56232;53.384;-2.732;2022-07-29T12:41:27;16;16;
69123;PMS5003;56232;53.384;-2.732;2022-07-29T12:43:53;17;16;
69123;PMS5003;56232;53.384;-2.732;2022-07-29T12:46:18;19;18;
69123;PMS5003;56232;53.384;-2.732;2022-07-29T12:48:44;17;17;
69123;PMS5003;56232;53.384;-2.732;2022-07-29T12:51:10;15;15;
69123;PMS5003;56232;53.384;-2.732;2022-07-29T12:53:35;13;13;
69123;PMS5003;56232;53.384;-2.732;2022-07-29T12:56:00;16;16;
69123;PMS5003;56232;53.384;-2.732;2022-07-29T12:58:27;16;15;
69123;PMS5003;56232;53.384;-2.732;2022-07-29T13:03:17;16;16;
69123;PMS5003;56232;53.384;-2.732;2022-07-29T13:05:43;14;14;
69123;PMS5003;56232;53.384;-2.732;2022-07-29T13:08:11;21;21;
69123;PMS5003;56232;53.384;-2.732;2022-07-29T13:10:35;17;17;
69123;PMS5003;56232;53.384;-2.732;2022-07-29T13:13:02;16;16;
69123;PMS5003;56232;53.384;-2.732;2022-07-29T13:15:24;13;13;
69123;PMS5003;56232;53.384;-2.732;2022-07-29T13:17:49;16;16;
69123;PMS5003;56232;53.384;-2.732;2022-07-29T13:20:15;13;13;
69123;PMS5003;56232;53.384;-2.732;2022-07-29T13:22:40;15;15;
69123;PMS5003;56232;53.384;-2.732;2022-07-29T13:25:06;19;18;
69123;PMS5003;56232;53.384;-2.732;2022-07-29T13:27:31;12;12;
69123;PMS5003;56232;53.384;-2.732;2022-07-29T13:29:57;13;13;
69123;PMS5003;56232;53.384;-2.732;2022-07-29T13:32:22;14;13;
69123;PMS5003;56232;53.384;-2.732;2022-07-29T13:34:47;14;13;
69123;PMS5003;56232;53.384;-2.732;2022-07-29T13:37:12;14;13;
69123;PMS5003;56232;53.384;-2.732;2022-07-29T13:39:38;14;14;
69123;PMS5003;56232;53.384;-2.732;2022-07-29T13:42:03;16;16;
69123;PMS5003;56232;53.384;-2.732;2022-07-29T13:44:29;18;17;
69123;PMS5003;56232;53.384;-2.732;2022-07-29T13:46:54;12;12;
69123;PMS5003;56232;53.384;-2.732;2022-07-29T13:49:20;14;14;
69123;PMS5003;56232;53.384;-2.732;2022-07-29T13:51:45;15;15;
69123;PMS5003;56232;53.384;-2.732;2022-07-29T13:54:11;16;15;
69123;PMS5003;56232;53.384;-2.732;2022-07-29T13:56:36;15;15;
69123;PMS5003;56232;53.384;-2.732;2022-07-29T13:59:02;15;15;
69123;PMS5003;56232;53.384;-2.732;2022-07-29T14:01:27;12;12;
69123;PMS5003;56232;53.384;-2.732;2022-07-29T14:03:53;13;13;
69123;PMS5003;56232;53.384;-2.732;2022-07-29T14:06:18;13;13;
69123;PMS5003;56232;53.384;-2.732;2022-07-29T14:08:44;16;15;
69123;PMS5003;56232;53.384;-2.732;2022-07-29T14:11:09;14;14;
69123;PMS5003;56232;53.384;-2.732;2022-07-29T14:13:35;15;14;
69123;PMS5003;56232;53.384;-2.732;2022-07-29T14:16:00;14;13;
69123;PMS5003;56232;53.384;-2.732;2022-07-29T14:18:26;17;16;
69123;PMS5003;56232;53.384;-2.732;2022-07-29T14:20:51;16;16;
69123;PMS5003;56232;53.384;-2.732;2022-07-29T14:23:17;15;15;
69123;PMS5003;56232;53.384;-2.732;2022-07-29T14:25:43;15;15;
69123;PMS5003;56232;53.384;-2.732;2022-07-29T14:28:07;17;17;
69123;PMS5003;56232;53.384;-2.732;2022-07-29T14:30:33;18;17;
69123;PMS5003;56232;53.384;-2.732;2022-07-29T14:32:58;15;14;
69123;PMS5003;56232;53.384;-2.732;2022-07-29T14:35:23;15;15;
69123;PMS5003;56232;53.384;-2.732;2022-07-29T14:37:49;14;14;
69123;PMS5003;56232;53.384;-2.732;2022-07-29T14:40:14;17;17;
69123;PMS5003;56232;53.384;-2.732;2022-07-29T14:42:39;17;15;
69123;PMS5003;56232;53.384;-2.732;2022-07-29T14:45:05;21;21;
69123;PMS5003;56232;53.384;-2.732;2022-07-29T14:47:29;18;18;
69123;PMS5003;56232;53.384;-2.732;2022-07-29T14:49:55;18;17;
69123;PMS5003;56232;53.384;-2.732;2022-07-29T14:52:21;17;17;
69123;PMS5003;56232;53.384;-2.732;2022-07-29T14:54:46;17;16;
69123;PMS5003;56232;53.384;-2.732;2022-07-29T14:57:12;19;18;
69123;PMS5003;56232;53.384;-2.732;2022-07-29T14:59:37;17;17;
69123;PMS5003;56232;53.384;-2.732;2022-07-29T15:02:02;15;15;
69123;PMS5003;56232;53.384;-2.732;2022-07-29T15:04:28;15;15;
69123;PMS5003;56232;53.384;-2.732;2022-07-29T15:06:53;19;19;
69123;PMS5003;56232;53.384;-2.732;2022-07-29T15:09:19;16;16;
69123;PMS5003;56232;53.384;-2.732;2022-07-29T15:11:44;18;18;
69123;PMS5003;56232;53.384;-2.732;2022-07-29T15:14:10;15;14;
69123;PMS5003;56232;53.384;-2.732;2022-07-29T15:16:35;18;17;
69123;PMS5003;56232;53.384;-2.732;2022-07-29T15:19:01;17;17;
69123;PMS5003;56232;53.384;-2.732;2022-07-29T15:21:26;16;16;
69123;PMS5003;56232;53.384;-2.732;2022-07-29T15:23:51;15;15;
69123;PMS5003;56232;53.384;-2.732;2022-07-29T15:26:17;12;12;
69123;PMS5003;56232;53.384;-2.732;2022-07-29T15:28:43;15;15;
69123;PMS5003;56232;53.384;-2.732;2022-07-29T15:31:08;18;18;
69123;PMS5003;56232;53.384;-2.732;2022-07-29T15:33:34;16;15;
69123;PMS5003;56232;53.384;-2.732;2022-07-29T15:35:59;15;15;
69123;PMS5003;56232;53.384;-2.732;2022-07-29T15:38:25;16;16;
69123;PMS5003;56232;53.384;-2.732;2022-07-29T15:40:50;22;20;
69123;PMS5003;56232;53.384;-2.732;2022-07-29T15:43:16;19;17;
69123;PMS5003;56232;53.384;-2.732;2022-07-29T15:45:42;23;23;
69123;PMS5003;56232;53.384;-2.732;2022-07-29T15:48:07;18;18;
69123;PMS5003;56232;53.384;-2.732;2022-07-29T15:50:32;18;17;
69123;PMS5003;56232;53.384;-2.732;2022-07-29T15:52:57;15;14;
69123;PMS5003;56232;53.384;-2.732;2022-07-29T15:55:23;19;18;
69123;PMS5003;56232;53.384;-2.732;2022-07-29T15:57:48;17;17;
69123;PMS5003;56232;53.384;-2.732;2022-07-29T16:00:14;15;15;
69123;PMS5003;56232;53.384;-2.732;2022-07-29T16:02:39;16;16;
69123;PMS5003;56232;53.384;-2.732;2022-07-29T16:05:05;17;16;
69123;PMS5003;56232;53.384;-2.732;2022-07-29T16:07:30;17;17;
69123;PMS5003;56232;53.384;-2.732;2022-07-29T16:09:56;16;16;
69123;PMS5003;56232;53.384;-2.732;2022-07-29T16:12:21;17;16;
69123;PMS5003;56232;53.384;-2.732;2022-07-29T16:14:47;17;17;
69123;PMS5003;56232;53.384;-2.732;2022-07-29T16:17:12;15;15;
69123;PMS5003;56232;53.384;-2.732;2022-07-29T16:19:38;13;13;
69123;PMS5003;56232;53.384;-2.732;2022-07-29T16:22:03;13;12;
69123;PMS5003;56232;53.384;-2.732;2022-07-29T16:24:29;12;12;
69123;PMS5003;56232;53.384;-2.732;2022-07-29T16:26:54;11;10;
69123;PMS5003;56232;53.384;-2.732;2022-07-29T16:29:20;11;11;
69123;PMS5003;56232;53.384;-2.732;2022-07-29T16:31:45;12;12;
69123;PMS5003;56232;53.384;-2.732;2022-07-29T16:34:11;14;13;
69123;PMS5003;56232;53.384;-2.732;2022-07-29T16:36:36;13;12;
69123;PMS5003;56232;53.384;-2.732;2022-07-29T16:39:02;13;13;
69123;PMS5003;56232;53.384;-2.732;2022-07-29T16:41:28;12;12;
69123;PMS5003;56232;53.384;-2.732;2022-07-29T16:43:53;12;11;